Skip Navigation Links
NOAA logo - Click to go to the NOAA homepage
NOAA's National Weather Service
Alaska Aviation Weather Unit
  NWS logo - Click to go to the NWS homepage
Left Navbar Graphic     08 AKDT = 16 GMT

   
NOAA is celebrating 200 years of science, service, and stewardship. Visit the NOAA 200th celebration Web site to learn more.
USA.gov is the U.S. Government's official Web portal to all Federal, state and local government Web resources and services.
Facebook
NWS on Facebook

Important Change Regarding the AAWU Web Presence

 

Over the last several months, the AAWU has been working to navigate its webpages to a nationally supported server. Security, as well as other needs, have necessitated the change.  In the process, we have made an effort to enhance the functionality of our website, as well as some of our products. As of June 20, 2017, aawu.arh.noaa.gov will be discontinued. The new AAWU web address is weather.gov/aawu. It is now live and will run in-parallel with the old site until it is discontinued. Please send any feedback or questions regarding the new webpages to nws.ar.aawu.webauthors@noaa.gov.  Thank you for your patience during this time of transition.
AAWU Home :: Display TAF Add Bookmark
TAF PASC 291124Z 2912/3012 08015KT P6SM SCT015 BKN100 BKN150
     FM291500 07020KT 4SM BR BKN007 OVC015
     FM291800 07020G30KT 1 1/2SM BR OVC007=

METAR PASC 291053Z 08017KT 10SM FEW100 BKN180 01/M01 A3001= METAR PASC 291153Z 08020KT 10SM FEW010 FEW100 BKN200 01/M01 A2999= PASC 291232Z 08018KT 10SM FEW008 FEW100 BKN200 00/M01 A2998= SPECI PASC 291232Z 08018KT 10SM FEW008 FEW100 BKN200 00/M01 A2998 RMK AO2 PK WND 08026/1209 T00001011= METAR PASC 291253Z 08020G27KT 10SM BKN010 BKN100 BKN200 00/M01 A2998= PASC 291333Z 08021KT 10SM BKN009 00/M01 A2997= SPECI PASC 291333Z 08021KT 10SM BKN009 00/M01 A2997 RMK AO2 PK WND 08027/1329 T00001011= METAR PASC 291353Z 08023KT 10SM OVC009 00/M01 A2997= METAR PASC 291453Z 08023G30KT 10SM OVC008 00/M01 A2996= METAR PASC 291553Z 08023G30KT 10SM OVC006 00/M02 A2996=
 Alaska TAF Map

NOAA's National Weather Service
Alaska Aviation Weather Unit
6930 Sand Lake Road
Anchorage, AK 99502-1845
Disclaimer
Credits
Glossary
Privacy Policy
About Us
Career Opportunities
Contact AAWU Internet Services Site last modified: April, 17th 2012